sensor_id;sensor_type;location;lat;lon;timestamp;temperature;humidity
65864;SHT30;52639;51.180;20.460;2023-07-22T00:02:43;15.54;81.38
65864;SHT30;52639;51.180;20.460;2023-07-22T00:06:46;15.62;81.40
65864;SHT30;52639;51.180;20.460;2023-07-22T00:10:49;15.55;81.71
65864;SHT30;52639;51.180;20.460;2023-07-22T00:14:53;15.57;81.94
65864;SHT30;52639;51.180;20.460;2023-07-22T00:18:56;15.47;82.45
65864;SHT30;52639;51.180;20.460;2023-07-22T00:22:59;15.48;82.33
65864;SHT30;52639;51.180;20.460;2023-07-22T00:27:02;15.43;82.63
65864;SHT30;52639;51.180;20.460;2023-07-22T00:31:07;15.41;82.81
65864;SHT30;52639;51.180;20.460;2023-07-22T00:35:09;15.36;83.00
65864;SHT30;52639;51.180;20.460;2023-07-22T00:39:14;15.30;84.25
65864;SHT30;52639;51.180;20.460;2023-07-22T00:43:16;15.24;84.36
65864;SHT30;52639;51.180;20.460;2023-07-22T00:47:21;15.22;83.76
65864;SHT30;52639;51.180;20.460;2023-07-22T00:51:24;15.14;83.71
65864;SHT30;52639;51.180;20.460;2023-07-22T00:55:27;15.10;83.74
65864;SHT30;52639;51.180;20.460;2023-07-22T00:59:31;15.11;83.77
65864;SHT30;52639;51.180;20.460;2023-07-22T01:03:35;15.06;83.75
65864;SHT30;52639;51.180;20.460;2023-07-22T01:07:38;15.00;83.88
65864;SHT30;52639;51.180;20.460;2023-07-22T01:11:41;14.97;83.97
65864;SHT30;52639;51.180;20.460;2023-07-22T01:15:44;14.95;84.06
65864;SHT30;52639;51.180;20.460;2023-07-22T01:19:48;14.90;84.10
65864;SHT30;52639;51.180;20.460;2023-07-22T01:23:53;14.90;84.31
65864;SHT30;52639;51.180;20.460;2023-07-22T01:27:56;14.87;84.42
65864;SHT30;52639;51.180;20.460;2023-07-22T01:31:59;14.87;84.41
65864;SHT30;52639;51.180;20.460;2023-07-22T01:36:03;14.85;84.78
65864;SHT30;52639;51.180;20.460;2023-07-22T01:40:09;14.85;84.66
65864;SHT30;52639;51.180;20.460;2023-07-22T01:44:13;14.71;85.04
65864;SHT30;52639;51.180;20.460;2023-07-22T01:48:16;14.55;85.16
65864;SHT30;52639;51.180;20.460;2023-07-22T01:52:19;14.38;85.31
65864;SHT30;52639;51.180;20.460;2023-07-22T01:56:23;14.21;85.60
65864;SHT30;52639;51.180;20.460;2023-07-22T02:00:26;14.11;85.78
65864;SHT30;52639;51.180;20.460;2023-07-22T02:04:29;14.18;85.57
65864;SHT30;52639;51.180;20.460;2023-07-22T02:08:32;14.32;85.10
65864;SHT30;52639;51.180;20.460;2023-07-22T02:12:37;14.18;85.33
65864;SHT30;52639;51.180;20.460;2023-07-22T02:16:40;14.25;85.36
65864;SHT30;52639;51.180;20.460;2023-07-22T02:20:43;14.08;85.54
65864;SHT30;52639;51.180;20.460;2023-07-22T02:24:45;14.04;85.62
65864;SHT30;52639;51.180;20.460;2023-07-22T02:28:50;13.98;85.72
65864;SHT30;52639;51.180;20.460;2023-07-22T02:32:52;13.88;85.93
65864;SHT30;52639;51.180;20.460;2023-07-22T02:36:55;13.84;85.91
65864;SHT30;52639;51.180;20.460;2023-07-22T02:41:02;13.92;85.98
65864;SHT30;52639;51.180;20.460;2023-07-22T02:45:09;13.94;85.80
65864;SHT30;52639;51.180;20.460;2023-07-22T02:49:13;14.00;85.83
65864;SHT30;52639;51.180;20.460;2023-07-22T02:53:16;13.97;85.86
65864;SHT30;52639;51.180;20.460;2023-07-22T02:57:20;13.92;86.04
65864;SHT30;52639;51.180;20.460;2023-07-22T03:01:24;13.89;86.18
65864;SHT30;52639;51.180;20.460;2023-07-22T03:05:27;13.92;86.13
65864;SHT30;52639;51.180;20.460;2023-07-22T03:09:31;13.84;86.43
65864;SHT30;52639;51.180;20.460;2023-07-22T03:13:34;13.89;86.42
65864;SHT30;52639;51.180;20.460;2023-07-22T03:17:39;14.07;86.16
65864;SHT30;52639;51.180;20.460;2023-07-22T03:21:43;14.29;85.86
65864;SHT30;52639;51.180;20.460;2023-07-22T03:25:46;14.48;85.71
65864;SHT30;52639;51.180;20.460;2023-07-22T03:29:49;14.66;85.63
65864;SHT30;52639;51.180;20.460;2023-07-22T03:33:53;14.79;85.58
65864;SHT30;52639;51.180;20.460;2023-07-22T03:37:56;14.86;85.77
65864;SHT30;52639;51.180;20.460;2023-07-22T03:41:59;14.90;86.00
65864;SHT30;52639;51.180;20.460;2023-07-22T03:46:02;15.00;86.06
65864;SHT30;52639;51.180;20.460;2023-07-22T03:50:08;15.07;85.96
65864;SHT30;52639;51.180;20.460;2023-07-22T03:54:11;15.13;86.13
65864;SHT30;52639;51.180;20.460;2023-07-22T03:58:14;15.26;85.93
65864;SHT30;52639;51.180;20.460;2023-07-22T04:02:17;15.48;85.87
65864;SHT30;52639;51.180;20.460;2023-07-22T04:06:21;15.60;85.77
65864;SHT30;52639;51.180;20.460;2023-07-22T04:10:24;15.80;85.70
65864;SHT30;52639;51.180;20.460;2023-07-22T04:14:27;15.91;85.75
65864;SHT30;52639;51.180;20.460;2023-07-22T04:18:29;16.05;85.67
65864;SHT30;52639;51.180;20.460;2023-07-22T04:22:37;16.26;85.55
65864;SHT30;52639;51.180;20.460;2023-07-22T04:26:43;16.55;85.09
65864;SHT30;52639;51.180;20.460;2023-07-22T04:30:55;16.72;85.24
65864;SHT30;52639;51.180;20.460;2023-07-22T04:34:59;16.81;85.34
65864;SHT30;52639;51.180;20.460;2023-07-22T04:39:03;16.84;85.63
65864;SHT30;52639;51.180;20.460;2023-07-22T04:43:07;16.81;85.85
65864;SHT30;52639;51.180;20.460;2023-07-22T04:47:10;16.79;86.18
65864;SHT30;52639;51.180;20.460;2023-07-22T04:51:13;16.73;86.36
65864;SHT30;52639;51.180;20.460;2023-07-22T04:55:17;16.62;86.74
65864;SHT30;52639;51.180;20.460;2023-07-22T04:59:20;16.90;86.34
65864;SHT30;52639;51.180;20.460;2023-07-22T05:03:23;17.41;85.01
65864;SHT30;52639;51.180;20.460;2023-07-22T05:07:27;17.27;85.44
65864;SHT30;52639;51.180;20.460;2023-07-22T05:11:32;17.19;85.84
65864;SHT30;52639;51.180;20.460;2023-07-22T05:15:35;17.42;85.38
65864;SHT30;52639;51.180;20.460;2023-07-22T05:19:38;17.70;84.77
65864;SHT30;52639;51.180;20.460;2023-07-22T05:23:41;17.52;85.32
65864;SHT30;52639;51.180;20.460;2023-07-22T05:27:45;17.24;86.06
65864;SHT30;52639;51.180;20.460;2023-07-22T05:31:48;17.11;86.42
65864;SHT30;52639;51.180;20.460;2023-07-22T05:35:51;17.24;86.13
65864;SHT30;52639;51.180;20.460;2023-07-22T05:39:54;17.23;85.93
65864;SHT30;52639;51.180;20.460;2023-07-22T05:43:58;17.40;85.69
65864;SHT30;52639;51.180;20.460;2023-07-22T05:48:05;17.86;84.52
65864;SHT30;52639;51.180;20.460;2023-07-22T05:52:08;18.36;83.41
65864;SHT30;52639;51.180;20.460;2023-07-22T05:56:10;19.15;81.42
65864;SHT30;52639;51.180;20.460;2023-07-22T06:00:15;19.74;80.36
65864;SHT30;52639;51.180;20.460;2023-07-22T06:04:18;21.59;76.68
65864;SHT30;52639;51.180;20.460;2023-07-22T06:08:21;22.86;74.44
65864;SHT30;52639;51.180;20.460;2023-07-22T06:12:24;21.48;77.99
65864;SHT30;52639;51.180;20.460;2023-07-22T06:16:29;22.35;76.50
65864;SHT30;52639;51.180;20.460;2023-07-22T06:20:32;30.84;55.85
65864;SHT30;52639;51.180;20.460;2023-07-22T06:24:35;33.14;53.15
65864;SHT30;52639;51.180;20.460;2023-07-22T06:28:38;32.57;56.29
65864;SHT30;52639;51.180;20.460;2023-07-22T06:32:42;27.05;70.58
65864;SHT30;52639;51.180;20.460;2023-07-22T06:36:45;24.84;75.46
65864;SHT30;52639;51.180;20.460;2023-07-22T06:40:48;26.26;69.68
65864;SHT30;52639;51.180;20.460;2023-07-22T06:44:51;25.22;71.10
65864;SHT30;52639;51.180;20.460;2023-07-22T06:48:55;23.18;75.54
65864;SHT30;52639;51.180;20.460;2023-07-22T06:52:58;22.52;75.35
65864;SHT30;52639;51.180;20.460;2023-07-22T06:57:01;27.30;61.77
65864;SHT30;52639;51.180;20.460;2023-07-22T07:01:04;31.89;52.67
65864;SHT30;52639;51.180;20.460;2023-07-22T07:05:08;32.17;53.52
65864;SHT30;52639;51.180;20.460;2023-07-22T07:09:12;31.57;55.90
65864;SHT30;52639;51.180;20.460;2023-07-22T07:13:15;28.19;63.65
65864;SHT30;52639;51.180;20.460;2023-07-22T07:17:18;27.90;63.24
65864;SHT30;52639;51.180;20.460;2023-07-22T07:21:23;26.94;65.04
65864;SHT30;52639;51.180;20.460;2023-07-22T07:25:26;30.83;54.98
65864;SHT30;52639;51.180;20.460;2023-07-22T07:29:29;29.54;58.43
65864;SHT30;52639;51.180;20.460;2023-07-22T07:33:33;28.33;60.53
65864;SHT30;52639;51.180;20.460;2023-07-22T07:37:37;25.51;65.80
65864;SHT30;52639;51.180;20.460;2023-07-22T07:41:40;25.20;65.32
65864;SHT30;52639;51.180;20.460;2023-07-22T07:45:43;29.32;54.81
65864;SHT30;52639;51.180;20.460;2023-07-22T07:49:46;28.40;56.39
65864;SHT30;52639;51.180;20.460;2023-07-22T07:53:50;26.74;60.45
65864;SHT30;52639;51.180;20.460;2023-07-22T07:57:53;27.16;57.83
65864;SHT30;52639;51.180;20.460;2023-07-22T08:01:56;26.70;58.12
65864;SHT30;52639;51.180;20.460;2023-07-22T08:06:04;28.43;53.99
65864;SHT30;52639;51.180;20.460;2023-07-22T08:10:10;29.45;52.16
65864;SHT30;52639;51.180;20.460;2023-07-22T08:14:14;27.16;57.27
65864;SHT30;52639;51.180;20.460;2023-07-22T08:18:18;27.12;57.37
65864;SHT30;52639;51.180;20.460;2023-07-22T08:22:21;27.04;56.34
65864;SHT30;52639;51.180;20.460;2023-07-22T08:26:25;29.15;51.73
65864;SHT30;52639;51.180;20.460;2023-07-22T08:30:29;29.59;51.13
65864;SHT30;52639;51.180;20.460;2023-07-22T08:34:32;29.66;51.04
65864;SHT30;52639;51.180;20.460;2023-07-22T08:38:34;27.33;54.53
65864;SHT30;52639;51.180;20.460;2023-07-22T08:42:40;28.74;51.28
65864;SHT30;52639;51.180;20.460;2023-07-22T08:46:45;29.88;49.61
65864;SHT30;52639;51.180;20.460;2023-07-22T08:50:52;28.21;52.71
65864;SHT30;52639;51.180;20.460;2023-07-22T08:54:56;29.11;50.21
65864;SHT30;52639;51.180;20.460;2023-07-22T08:59:01;27.69;53.59
65864;SHT30;52639;51.180;20.460;2023-07-22T09:03:04;25.31;56.99
65864;SHT30;52639;51.180;20.460;2023-07-22T09:07:08;24.97;55.79
65864;SHT30;52639;51.180;20.460;2023-07-22T09:11:13;26.71;52.08
65864;SHT30;52639;51.180;20.460;2023-07-22T09:15:18;25.34;54.16
65864;SHT30;52639;51.180;20.460;2023-07-22T09:19:21;27.86;49.46
65864;SHT30;52639;51.180;20.460;2023-07-22T09:23:32;26.37;52.07
65864;SHT30;52639;51.180;20.460;2023-07-22T09:27:35;25.49;53.61
65864;SHT30;52639;51.180;20.460;2023-07-22T09:31:48;27.42;50.00
65864;SHT30;52639;51.180;20.460;2023-07-22T09:35:52;28.51;48.84
65864;SHT30;52639;51.180;20.460;2023-07-22T09:39:55;28.16;50.23
65864;SHT30;52639;51.180;20.460;2023-07-22T09:44:02;28.05;50.03
65864;SHT30;52639;51.180;20.460;2023-07-22T09:48:08;28.20;50.17
65864;SHT30;52639;51.180;20.460;2023-07-22T09:52:11;26.02;54.66
65864;SHT30;52639;51.180;20.460;2023-07-22T09:56:14;24.60;55.53
65864;SHT30;52639;51.180;20.460;2023-07-22T10:00:17;25.35;52.58
65864;SHT30;52639;51.180;20.460;2023-07-22T10:04:27;27.03;48.99
65864;SHT30;52639;51.180;20.460;2023-07-22T10:08:34;27.08;48.72
65864;SHT30;52639;51.180;20.460;2023-07-22T10:12:37;26.93;48.85
65864;SHT30;52639;51.180;20.460;2023-07-22T10:16:41;27.34;47.86
65864;SHT30;52639;51.180;20.460;2023-07-22T10:20:46;27.03;48.34
65864;SHT30;52639;51.180;20.460;2023-07-22T10:24:52;25.49;50.97
65864;SHT30;52639;51.180;20.460;2023-07-22T10:28:57;25.76;49.97
65864;SHT30;52639;51.180;20.460;2023-07-22T10:33:01;25.66;49.51
65864;SHT30;52639;51.180;20.460;2023-07-22T10:37:09;25.57;49.17
65864;SHT30;52639;51.180;20.460;2023-07-22T10:41:13;25.72;49.26
65864;SHT30;52639;51.180;20.460;2023-07-22T10:45:29;25.95;48.71
65864;SHT30;52639;51.180;20.460;2023-07-22T10:49:47;26.65;47.26
65864;SHT30;52639;51.180;20.460;2023-07-22T10:53:52;26.60;47.81
65864;SHT30;52639;51.180;20.460;2023-07-22T10:58:03;25.17;50.06
65864;SHT30;52639;51.180;20.460;2023-07-22T11:02:07;25.76;47.41
65864;SHT30;52639;51.180;20.460;2023-07-22T11:06:10;25.52;49.52
65864;SHT30;52639;51.180;20.460;2023-07-22T11:10:19;25.34;49.62
65864;SHT30;52639;51.180;20.460;2023-07-22T11:14:22;24.41;51.35
65864;SHT30;52639;51.180;20.460;2023-07-22T11:18:36;24.23;50.41
65864;SHT30;52639;51.180;20.460;2023-07-22T11:22:39;25.07;48.95
65864;SHT30;52639;51.180;20.460;2023-07-22T11:26:47;25.01;48.92
65864;SHT30;52639;51.180;20.460;2023-07-22T11:30:51;24.37;50.22
65864;SHT30;52639;51.180;20.460;2023-07-22T11:34:54;25.41;48.29
65864;SHT30;52639;51.180;20.460;2023-07-22T11:39:02;25.90;47.48
65864;SHT30;52639;51.180;20.460;2023-07-22T11:43:07;25.37;48.68
65864;SHT30;52639;51.180;20.460;2023-07-22T11:47:10;24.92;49.39
65864;SHT30;52639;51.180;20.460;2023-07-22T11:51:16;25.20;48.81
65864;SHT30;52639;51.180;20.460;2023-07-22T11:55:23;25.95;46.96
65864;SHT30;52639;51.180;20.460;2023-07-22T11:59:35;26.16;46.05
65864;SHT30;52639;51.180;20.460;2023-07-22T12:03:39;25.69;47.52
65864;SHT30;52639;51.180;20.460;2023-07-22T12:07:42;25.15;48.34
65864;SHT30;52639;51.180;20.460;2023-07-22T12:11:45;24.55;49.26
65864;SHT30;52639;51.180;20.460;2023-07-22T12:16:01;23.90;49.73
65864;SHT30;52639;51.180;20.460;2023-07-22T12:20:05;23.59;50.00
65864;SHT30;52639;51.180;20.460;2023-07-22T12:24:08;23.39;50.00
65864;SHT30;52639;51.180;20.460;2023-07-22T12:28:29;23.63;49.49
65864;SHT30;52639;51.180;20.460;2023-07-22T12:32:33;23.96;48.94
65864;SHT30;52639;51.180;20.460;2023-07-22T12:36:36;24.06;48.89
65864;SHT30;52639;51.180;20.460;2023-07-22T12:40:39;24.39;48.51
65864;SHT30;52639;51.180;20.460;2023-07-22T12:44:42;24.47;48.46
65864;SHT30;52639;51.180;20.460;2023-07-22T12:48:46;24.40;48.80
65864;SHT30;52639;51.180;20.460;2023-07-22T12:52:49;25.10;47.83
65864;SHT30;52639;51.180;20.460;2023-07-22T12:56:52;25.30;47.83
65864;SHT30;52639;51.180;20.460;2023-07-22T13:00:54;25.27;47.89
65864;SHT30;52639;51.180;20.460;2023-07-22T13:04:59;24.76;48.83
65864;SHT30;52639;51.180;20.460;2023-07-22T13:09:02;24.22;49.75
65864;SHT30;52639;51.180;20.460;2023-07-22T13:13:05;23.75;50.29
65864;SHT30;52639;51.180;20.460;2023-07-22T13:17:08;23.35;50.88
65864;SHT30;52639;51.180;20.460;2023-07-22T13:21:13;23.01;51.54
65864;SHT30;52639;51.180;20.460;2023-07-22T13:25:16;22.88;51.27
65864;SHT30;52639;51.180;20.460;2023-07-22T13:29:18;24.06;49.25
65864;SHT30;52639;51.180;20.460;2023-07-22T13:33:21;24.71;48.11
65864;SHT30;52639;51.180;20.460;2023-07-22T13:37:26;24.70;48.32
65864;SHT30;52639;51.180;20.460;2023-07-22T13:41:28;24.03;49.93
65864;SHT30;52639;51.180;20.460;2023-07-22T13:45:32;23.65;50.50
65864;SHT30;52639;51.180;20.460;2023-07-22T13:49:35;23.73;49.88
65864;SHT30;52639;51.180;20.460;2023-07-22T13:53:39;23.92;49.26
65864;SHT30;52639;51.180;20.460;2023-07-22T13:57:42;24.09;49.11
65864;SHT30;52639;51.180;20.460;2023-07-22T14:01:45;24.50;47.72
65864;SHT30;52639;51.180;20.460;2023-07-22T14:05:48;24.63;47.54
65864;SHT30;52639;51.180;20.460;2023-07-22T14:09:53;24.63;47.29
65864;SHT30;52639;51.180;20.460;2023-07-22T14:13:55;24.17;47.67
65864;SHT30;52639;51.180;20.460;2023-07-22T14:17:58;24.43;47.52
65864;SHT30;52639;51.180;20.460;2023-07-22T14:22:01;24.50;47.00
65864;SHT30;52639;51.180;20.460;2023-07-22T14:26:08;24.63;46.69
65864;SHT30;52639;51.180;20.460;2023-07-22T14:30:13;24.33;47.06
65864;SHT30;52639;51.180;20.460;2023-07-22T14:34:16;24.02;47.24
65864;SHT30;52639;51.180;20.460;2023-07-22T14:38:19;23.82;46.92
65864;SHT30;52639;51.180;20.460;2023-07-22T14:42:24;23.32;47.54
65864;SHT30;52639;51.180;20.460;2023-07-22T14:46:27;23.32;47.29
65864;SHT30;52639;51.180;20.460;2023-07-22T14:50:30;23.35;47.17
65864;SHT30;52639;51.180;20.460;2023-07-22T14:54:34;23.55;46.75
65864;SHT30;52639;51.180;20.460;2023-07-22T14:58:38;23.12;47.27
65864;SHT30;52639;51.180;20.460;2023-07-22T15:02:42;23.07;47.01
65864;SHT30;52639;51.180;20.460;2023-07-22T15:06:44;23.93;45.75
65864;SHT30;52639;51.180;20.460;2023-07-22T15:10:47;24.16;45.75
65864;SHT30;52639;51.180;20.460;2023-07-22T15:14:52;24.01;45.95
65864;SHT30;52639;51.180;20.460;2023-07-22T15:18:55;23.72;46.38
65864;SHT30;52639;51.180;20.460;2023-07-22T15:22:58;23.29;47.35
65864;SHT30;52639;51.180;20.460;2023-07-22T15:27:02;23.10;47.87
65864;SHT30;52639;51.180;20.460;2023-07-22T15:31:06;22.80;48.01
65864;SHT30;52639;51.180;20.460;2023-07-22T15:35:09;22.87;47.85
65864;SHT30;52639;51.180;20.460;2023-07-22T15:39:12;22.98;47.56
65864;SHT30;52639;51.180;20.460;2023-07-22T15:43:14;23.34;47.08
65864;SHT30;52639;51.180;20.460;2023-07-22T15:47:19;23.63;46.69
65864;SHT30;52639;51.180;20.460;2023-07-22T15:51:22;23.72;46.68
65864;SHT30;52639;51.180;20.460;2023-07-22T15:55:25;23.39;47.34
65864;SHT30;52639;51.180;20.460;2023-07-22T15:59:28;23.21;47.51
65864;SHT30;52639;51.180;20.460;2023-07-22T16:03:33;22.93;47.51
65864;SHT30;52639;51.180;20.460;2023-07-22T16:07:37;22.70;47.73
65864;SHT30;52639;51.180;20.460;2023-07-22T16:11:40;22.73;47.60
65864;SHT30;52639;51.180;20.460;2023-07-22T16:15:43;22.96;47.02
65864;SHT30;52639;51.180;20.460;2023-07-22T16:19:47;22.93;46.81
65864;SHT30;52639;51.180;20.460;2023-07-22T16:23:50;22.67;47.22
65864;SHT30;52639;51.180;20.460;2023-07-22T16:27:53;22.13;48.13
65864;SHT30;52639;51.180;20.460;2023-07-22T16:31:56;22.02;48.00
65864;SHT30;52639;51.180;20.460;2023-07-22T16:36:00;21.72;48.64
65864;SHT30;52639;51.180;20.460;2023-07-22T16:40:04;21.42;49.09
65864;SHT30;52639;51.180;20.460;2023-07-22T16:44:09;21.14;49.37
65864;SHT30;52639;51.180;20.460;2023-07-22T16:48:12;21.31;49.15
65864;SHT30;52639;51.180;20.460;2023-07-22T16:52:16;21.39;49.03
65864;SHT30;52639;51.180;20.460;2023-07-22T16:56:19;21.31;49.38
65864;SHT30;52639;51.180;20.460;2023-07-22T17:00:22;21.27;49.64
65864;SHT30;52639;51.180;20.460;2023-07-22T17:04:25;21.23;49.66
65864;SHT30;52639;51.180;20.460;2023-07-22T17:08:29;21.10;49.62
65864;SHT30;52639;51.180;20.460;2023-07-22T17:12:32;21.04;49.56
65864;SHT30;52639;51.180;20.460;2023-07-22T17:16:37;21.17;49.33
65864;SHT30;52639;51.180;20.460;2023-07-22T17:20:40;21.20;49.38
65864;SHT30;52639;51.180;20.460;2023-07-22T17:24:44;21.20;49.21
65864;SHT30;52639;51.180;20.460;2023-07-22T17:28:48;21.11;49.23
65864;SHT30;52639;51.180;20.460;2023-07-22T17:32:52;21.10;48.98
65864;SHT30;52639;51.180;20.460;2023-07-22T17:36:55;21.04;49.04
65864;SHT30;52639;51.180;20.460;2023-07-22T17:41:01;20.94;49.32
65864;SHT30;52639;51.180;20.460;2023-07-22T17:45:05;20.93;49.29
65864;SHT30;52639;51.180;20.460;2023-07-22T17:49:09;20.81;49.38
65864;SHT30;52639;51.180;20.460;2023-07-22T17:53:12;20.64;49.63
65864;SHT30;52639;51.180;20.460;2023-07-22T17:57:18;20.22;50.54
65864;SHT30;52639;51.180;20.460;2023-07-22T18:01:22;19.68;51.52
65864;SHT30;52639;51.180;20.460;2023-07-22T18:05:26;19.28;52.05
65864;SHT30;52639;51.180;20.460;2023-07-22T18:09:31;18.79;52.94
65864;SHT30;52639;51.180;20.460;2023-07-22T18:13:35;18.43;53.56
65864;SHT30;52639;51.180;20.460;2023-07-22T18:17:39;18.05;54.37
65864;SHT30;52639;51.180;20.460;2023-07-22T18:21:43;17.72;55.14
65864;SHT30;52639;51.180;20.460;2023-07-22T18:25:47;17.51;55.54
65864;SHT30;52639;51.180;20.460;2023-07-22T18:29:52;17.21;56.33
65864;SHT30;52639;51.180;20.460;2023-07-22T18:34:00;16.96;56.86
65864;SHT30;52639;51.180;20.460;2023-07-22T18:38:03;16.67;57.45
65864;SHT30;52639;51.180;20.460;2023-07-22T18:42:08;16.35;58.22
65864;SHT30;52639;51.180;20.460;2023-07-22T18:46:20;16.12;58.75
65864;SHT30;52639;51.180;20.460;2023-07-22T18:50:25;15.77;59.36
65864;SHT30;52639;51.180;20.460;2023-07-22T18:54:28;15.33;60.38
65864;SHT30;52639;51.180;20.460;2023-07-22T18:58:33;15.11;60.87
65864;SHT30;52639;51.180;20.460;2023-07-22T19:02:38;14.82;61.43
65864;SHT30;52639;51.180;20.460;2023-07-22T19:06:43;14.51;62.10
65864;SHT30;52639;51.180;20.460;2023-07-22T19:10:47;14.25;62.70
65864;SHT30;52639;51.180;20.460;2023-07-22T19:14:51;14.12;62.86
65864;SHT30;52639;51.180;20.460;2023-07-22T19:19:00;13.92;63.22
65864;SHT30;52639;51.180;20.460;2023-07-22T19:23:04;13.74;63.79
65864;SHT30;52639;51.180;20.460;2023-07-22T19:27:08;13.60;64.08
65864;SHT30;52639;51.180;20.460;2023-07-22T19:31:12;13.58;64.29
65864;SHT30;52639;51.180;20.460;2023-07-22T19:35:18;13.58;64.38
65864;SHT30;52639;51.180;20.460;2023-07-22T19:39:25;13.74;64.40
65864;SHT30;52639;51.180;20.460;2023-07-22T19:43:29;13.71;64.50
65864;SHT30;52639;51.180;20.460;2023-07-22T19:47:33;13.47;65.18
65864;SHT30;52639;51.180;20.460;2023-07-22T19:51:38;13.34;65.56
65864;SHT30;52639;51.180;20.460;2023-07-22T19:55:41;13.24;66.54
65864;SHT30;52639;51.180;20.460;2023-07-22T19:59:46;13.34;67.32
65864;SHT30;52639;51.180;20.460;2023-07-22T20:03:51;13.24;67.06
65864;SHT30;52639;51.180;20.460;2023-07-22T20:07:56;13.27;67.58
65864;SHT30;52639;51.180;20.460;2023-07-22T20:12:00;13.10;67.31
65864;SHT30;52639;51.180;20.460;2023-07-22T20:16:05;12.80;67.79
65864;SHT30;52639;51.180;20.460;2023-07-22T20:20:10;12.70;68.16
65864;SHT30;52639;51.180;20.460;2023-07-22T20:24:14;12.58;68.91
65864;SHT30;52639;51.180;20.460;2023-07-22T20:28:19;12.60;69.12
65864;SHT30;52639;51.180;20.460;2023-07-22T20:32:23;12.48;69.44
65864;SHT30;52639;51.180;20.460;2023-07-22T20:36:27;12.34;69.62
65864;SHT30;52639;51.180;20.460;2023-07-22T20:40:31;12.08;69.80
65864;SHT30;52639;51.180;20.460;2023-07-22T20:44:35;11.95;70.31
65864;SHT30;52639;51.180;20.460;2023-07-22T20:48:40;11.84;70.83
65864;SHT30;52639;51.180;20.460;2023-07-22T20:52:44;11.67;70.72
65864;SHT30;52639;51.180;20.460;2023-07-22T20:56:49;11.52;70.96
65864;SHT30;52639;51.180;20.460;2023-07-22T21:00:53;11.36;71.41
65864;SHT30;52639;51.180;20.460;2023-07-22T21:04:56;11.37;72.42
65864;SHT30;52639;51.180;20.460;2023-07-22T21:08:59;11.19;71.98
65864;SHT30;52639;51.180;20.460;2023-07-22T21:13:04;11.09;72.86
65864;SHT30;52639;51.180;20.460;2023-07-22T21:17:07;11.13;74.20
65864;SHT30;52639;51.180;20.460;2023-07-22T21:21:13;11.08;73.72
65864;SHT30;52639;51.180;20.460;2023-07-22T21:25:16;10.80;73.16
65864;SHT30;52639;51.180;20.460;2023-07-22T21:29:21;10.69;73.38
65864;SHT30;52639;51.180;20.460;2023-07-22T21:33:23;10.61;73.76
65864;SHT30;52639;51.180;20.460;2023-07-22T21:37:26;10.51;74.08
65864;SHT30;52639;51.180;20.460;2023-07-22T21:41:29;10.40;73.85
65864;SHT30;52639;51.180;20.460;2023-07-22T21:45:34;10.38;74.18
65864;SHT30;52639;51.180;20.460;2023-07-22T21:49:37;10.41;75.89
65864;SHT30;52639;51.180;20.460;2023-07-22T21:53:40;10.35;76.23
65864;SHT30;52639;51.180;20.460;2023-07-22T21:57:46;10.28;75.54
65864;SHT30;52639;51.180;20.460;2023-07-22T22:01:50;10.15;75.49
65864;SHT30;52639;51.180;20.460;2023-07-22T22:05:57;10.08;74.77
65864;SHT30;52639;51.180;20.460;2023-07-22T22:10:00;10.00;75.04
65864;SHT30;52639;51.180;20.460;2023-07-22T22:14:04;9.90;74.82
65864;SHT30;52639;51.180;20.460;2023-07-22T22:18:08;9.83;75.27
65864;SHT30;52639;51.180;20.460;2023-07-22T22:22:11;9.80;75.69
65864;SHT30;52639;51.180;20.460;2023-07-22T22:26:14;9.73;76.09
65864;SHT30;52639;51.180;20.460;2023-07-22T22:30:17;9.76;77.24
65864;SHT30;52639;51.180;20.460;2023-07-22T22:34:21;9.69;77.98
65864;SHT30;52639;51.180;20.460;2023-07-22T22:38:24;9.63;78.21
65864;SHT30;52639;51.180;20.460;2023-07-22T22:42:27;9.59;78.39
65864;SHT30;52639;51.180;20.460;2023-07-22T22:46:30;9.50;78.00
65864;SHT30;52639;51.180;20.460;2023-07-22T22:50:34;9.46;77.29
65864;SHT30;52639;51.180;20.460;2023-07-22T22:54:37;9.42;78.20
65864;SHT30;52639;51.180;20.460;2023-07-22T22:58:40;9.30;78.04
65864;SHT30;52639;51.180;20.460;2023-07-22T23:02:43;9.22;77.27
65864;SHT30;52639;51.180;20.460;2023-07-22T23:06:49;9.20;78.31
65864;SHT30;52639;51.180;20.460;2023-07-22T23:10:52;9.15;79.55
65864;SHT30;52639;51.180;20.460;2023-07-22T23:14:55;9.09;78.50
65864;SHT30;52639;51.180;20.460;2023-07-22T23:19:00;9.05;78.85
65864;SHT30;52639;51.180;20.460;2023-07-22T23:23:03;8.99;78.64
65864;SHT30;52639;51.180;20.460;2023-07-22T23:27:06;8.89;78.82
65864;SHT30;52639;51.180;20.460;2023-07-22T23:31:09;8.88;78.91
65864;SHT30;52639;51.180;20.460;2023-07-22T23:35:13;8.88;79.27
65864;SHT30;52639;51.180;20.460;2023-07-22T23:39:18;8.81;79.28
65864;SHT30;52639;51.180;20.460;2023-07-22T23:43:21;8.74;78.56
65864;SHT30;52639;51.180;20.460;2023-07-22T23:47:25;8.62;78.37
65864;SHT30;52639;51.180;20.460;2023-07-22T23:51:27;8.61;79.39
65864;SHT30;52639;51.180;20.460;2023-07-22T23:55:32;8.58;78.82
65864;SHT30;52639;51.180;20.460;2023-07-22T23:59:38;8.50;78.54
